Time;durP1;ratioP1;P1;durP2;ratioP2;P2;SDS_P1;SDS_P2;PMS_P1;PMS_P2;Temp;Humidity;BMP_temperature;BMP_pressure;BME280_temperature;BME280_humidity;BME280_pressure;Samples;Min_cycle;Max_cycle;Signal;HPM_P1;HPM_P2
2021/01/14 00:00:09;;;;;;;2.20;0.95;;;;;;;0.00;72.75;100455.09;4987632;28;64423;-67
2021/01/14 00:02:35;;;;;;;4.72;1.00;;;;;;;0.04;72.88;100466.13;5003047;28;62627;-69
2021/01/14 00:05:09;;;;;;;1.67;0.90;;;;;;;0.00;72.57;100468.13;5002673;28;63095;-70
2021/01/14 00:07:35;;;;;;;1.27;0.75;;;;;;;0.04;72.75;100466.13;5002018;28;62683;-69
2021/01/14 00:10:04;;;;;;;2.08;1.10;;;;;;;0.01;73.10;100461.97;5001676;28;64430;-69
2021/01/14 00:12:31;;;;;;;3.13;1.17;;;;;;;0.08;73.24;100472.78;4996924;28;62564;-66
2021/01/14 00:14:57;;;;;;;1.80;1.08;;;;;;;0.10;73.54;100473.50;4978269;28;63069;-70
2021/01/14 00:17:23;;;;;;;3.75;1.27;;;;;;;0.12;73.61;100480.25;4998205;28;63300;-69
2021/01/14 00:19:50;;;;;;;0.60;0.47;;;;;;;0.15;73.09;100485.25;4997132;28;63661;-69
2021/01/14 00:22:16;;;;;;;2.10;0.88;;;;;;;0.17;72.98;100487.72;4999724;28;63112;-66
2021/01/14 00:24:43;;;;;;;2.45;0.85;;;;;;;0.20;73.03;100488.34;5000688;28;62743;-67
2021/01/14 00:27:12;;;;;;;3.40;0.95;;;;;;;0.22;72.99;100488.25;4995891;28;63129;-69
2021/01/14 00:29:39;;;;;;;2.95;1.20;;;;;;;0.21;72.51;100491.78;4983255;28;63076;-70
2021/01/14 00:32:05;;;;;;;3.00;0.90;;;;;;;0.18;72.65;100499.84;5000115;28;62941;-69
2021/01/14 00:34:32;;;;;;;2.28;1.17;;;;;;;0.11;72.26;100507.28;5000209;28;62622;-70
2021/01/14 00:39:43;;;;;;;1.13;0.60;;;;;;;0.10;72.76;100502.19;5002487;28;65078;-66
2021/01/14 00:42:09;;;;;;;2.03;0.75;;;;;;;0.05;72.00;100514.75;5001097;28;62731;-66
2021/01/14 00:44:35;;;;;;;2.55;0.70;;;;;;;0.12;72.92;100518.56;4999753;28;62968;-69
2021/01/14 00:47:01;;;;;;;4.50;1.20;;;;;;;0.14;72.67;100519.28;5006405;28;62980;-70
2021/01/14 00:49:27;;;;;;;4.15;1.02;;;;;;;0.05;72.17;100519.94;4992045;28;63780;-70
2021/01/14 00:51:53;;;;;;;3.47;1.17;;;;;;;0.16;72.34;100528.66;5001198;28;62846;-67
2021/01/14 00:54:19;;;;;;;2.30;0.60;;;;;;;0.15;72.51;100533.97;5006425;28;62646;-66
2021/01/14 00:56:46;;;;;;;1.35;1.10;;;;;;;0.19;72.66;100540.63;5006848;28;62950;-68
2021/01/14 00:59:12;;;;;;;1.33;0.77;;;;;;;0.14;71.92;100540.97;5007616;28;62899;-66
2021/01/14 01:01:42;;;;;;;1.00;0.63;;;;;;;0.12;72.10;100526.38;5005985;28;62630;-69
2021/01/14 01:04:08;;;;;;;2.85;1.00;;;;;;;0.09;72.03;100518.78;4998242;28;62627;-69
2021/01/14 01:06:39;;;;;;;1.00;0.65;;;;;;;0.06;72.44;100542.47;5009481;28;62733;-66
2021/01/14 01:09:10;;;;;;;2.72;1.20;;;;;;;0.07;72.49;100533.72;5002017;28;66118;-66
2021/01/14 01:11:37;;;;;;;3.72;0.98;;;;;;;0.07;72.47;100533.72;5008064;28;63062;-66
2021/01/14 01:14:05;;;;;;;7.47;1.23;;;;;;;0.03;72.84;100540.91;4983836;28;61923;-70
2021/01/14 01:16:31;;;;;;;2.45;1.08;;;;;;;-0.02;72.73;100532.59;5007801;28;63447;-70
2021/01/14 01:18:58;;;;;;;5.20;1.92;;;;;;;-0.09;73.11;100533.97;5004707;28;62596;-70
2021/01/14 01:21:24;;;;;;;4.70;1.00;;;;;;;-0.08;73.41;100546.91;4985238;28;62954;-69
2021/01/14 01:23:50;;;;;;;2.33;0.80;;;;;;;-0.09;73.54;100555.66;5005909;28;62551;-66
2021/01/14 01:26:19;;;;;;;3.50;0.82;;;;;;;-0.12;73.82;100553.28;5006452;28;63147;-66
2021/01/14 01:28:46;;;;;;;1.67;0.70;;;;;;;-0.18;72.77;100538.06;4988185;28;62747;-69
2021/01/14 01:31:13;;;;;;;3.20;1.15;;;;;;;-0.18;72.89;100551.09;5006719;28;62994;-66
2021/01/14 01:33:41;;;;;;;1.52;1.00;;;;;;;-0.15;72.99;100561.34;5001384;28;62584;-66
2021/01/14 01:36:07;;;;;;;2.15;0.95;;;;;;;-0.13;73.09;100559.41;5009685;28;62395;-70
2021/01/14 01:38:35;;;;;;;1.00;0.55;;;;;;;-0.11;73.21;100565.38;4999626;28;62688;-66
2021/01/14 01:41:02;;;;;;;5.07;0.80;;;;;;;-0.09;72.77;100565.25;5007321;28;63043;-69
2021/01/14 01:43:30;;;;;;;3.35;0.98;;;;;;;-0.08;73.41;100572.16;4999908;28;62675;-69
2021/01/14 01:45:57;;;;;;;1.63;0.60;;;;;;;-0.10;72.84;100574.03;4988785;28;63181;-66
2021/01/14 01:48:24;;;;;;;2.65;1.02;;;;;;;-0.13;73.23;100582.88;5008160;28;63653;-66
2021/01/14 01:50:55;;;;;;;3.65;0.90;;;;;;;-0.19;73.12;100587.72;5003923;28;62756;-69
2021/01/14 01:53:23;;;;;;;2.97;0.80;;;;;;;-0.19;73.21;100606.81;5001110;28;63073;-69
2021/01/14 01:55:50;;;;;;;4.20;1.27;;;;;;;-0.18;73.24;100600.66;5005104;28;62849;-67
2021/01/14 01:58:20;;;;;;;3.85;0.70;;;;;;;-0.16;73.33;100588.34;4996947;28;63912;-69
2021/01/14 02:00:46;;;;;;;1.73;0.70;;;;;;;-0.08;73.30;100609.50;4983016;28;62505;-70
2021/01/14 02:03:12;;;;;;;5.65;1.10;;;;;;;-0.09;74.01;100607.81;5005372;28;62732;-69
2021/01/14 02:05:38;;;;;;;3.72;0.93;;;;;;;-0.04;73.32;100604.91;5002378;28;62872;-69
2021/01/14 02:08:20;;;;;;;4.20;1.38;;;;;;;-0.02;73.63;100608.22;5000668;28;63413;-66
2021/01/14 02:10:53;;;;;;;2.65;0.85;;;;;;;0.05;73.54;100619.88;4981810;28;62662;-69
2021/01/14 02:13:22;;;;;;;1.80;0.98;;;;;;;0.09;73.11;100623.94;5001907;28;64114;-66
2021/01/14 02:15:50;;;;;;;1.98;0.90;;;;;;;0.10;73.41;100627.38;5004431;28;63109;-66
2021/01/14 02:18:18;;;;;;;3.47;0.95;;;;;;;0.05;72.87;100613.84;4997834;28;63745;-70
2021/01/14 02:20:55;;;;;;;2.35;0.95;;;;;;;0.11;72.85;100634.28;5010341;28;61861;-70
2021/01/14 02:23:48;;;;;;;3.95;1.30;;;;;;;0.20;73.46;100638.81;5000886;28;62596;-69
2021/01/14 02:26:36;;;;;;;3.65;1.08;;;;;;;0.24;73.15;100639.44;5003868;28;62608;-69
2021/01/14 02:29:03;;;;;;;3.22;0.95;;;;;;;0.27;73.20;100634.81;5003340;28;63963;-69
2021/01/14 02:31:29;;;;;;;3.85;1.42;;;;;;;0.26;73.51;100648.00;5000751;28;62506;-69
2021/01/14 02:33:56;;;;;;;5.82;2.55;;;;;;;0.28;72.93;100657.38;5001872;28;62631;-66
2021/01/14 02:36:24;;;;;;;2.97;1.20;;;;;;;0.31;73.36;100667.59;4998446;28;62961;-68
2021/01/14 02:38:51;;;;;;;1.63;0.80;;;;;;;0.31;72.77;100666.75;5003820;28;63476;-67
2021/01/14 02:41:17;;;;;;;3.28;0.95;;;;;;;0.36;72.87;100670.72;5004040;28;62955;-66
2021/01/14 02:43:45;;;;;;;1.33;0.82;;;;;;;0.32;72.99;100671.88;5005454;28;62674;-69
2021/01/14 02:46:12;;;;;;;3.45;1.20;;;;;;;0.32;73.06;100677.09;4986571;28;62764;-66
2021/01/14 02:48:42;;;;;;;2.05;1.10;;;;;;;0.38;72.96;100675.81;5002736;28;64565;-66
2021/01/14 02:51:31;;;;;;;1.63;0.73;;;;;;;0.38;73.25;100689.72;5002462;28;62968;-69
2021/01/14 02:54:02;;;;;;;3.70;0.82;;;;;;;0.42;73.72;100687.69;4986229;28;62840;-69
2021/01/14 02:56:32;;;;;;;2.63;1.15;;;;;;;0.42;73.25;100695.50;4984330;28;62654;-69
2021/01/14 02:59:04;;;;;;;2.38;0.90;;;;;;;0.42;73.45;100698.13;4982054;28;63701;-66
2021/01/14 03:01:31;;;;;;;1.23;0.77;;;;;;;0.42;73.11;100700.75;5001779;28;62667;-69
2021/01/14 03:03:58;;;;;;;1.70;0.70;;;;;;;0.40;73.37;100703.47;5006254;28;63024;-69
2021/01/14 03:06:24;;;;;;;4.78;0.93;;;;;;;0.42;74.01;100705.97;5007391;28;62725;-66
2021/01/14 03:08:51;;;;;;;2.78;0.93;;;;;;;0.44;74.35;100724.13;5002998;28;63663;-66
2021/01/14 03:11:33;;;;;;;2.60;0.90;;;;;;;0.47;74.94;100731.72;5008262;28;62329;-66
2021/01/14 03:14:00;;;;;;;2.75;1.20;;;;;;;0.48;75.13;100715.13;4988393;28;62845;-69
2021/01/14 03:16:26;;;;;;;1.45;0.93;;;;;;;0.48;74.82;100725.56;5003996;28;62841;-66
2021/01/14 03:18:55;;;;;;;4.50;1.48;;;;;;;0.48;75.12;100715.13;5009021;28;63864;-66
2021/01/14 03:21:23;;;;;;;4.78;1.33;;;;;;;0.44;74.62;100724.94;5005498;28;62561;-69
2021/01/14 03:23:50;;;;;;;1.05;0.70;;;;;;;0.45;74.68;100729.25;5001300;28;63154;-69
2021/01/14 03:26:17;;;;;;;2.58;1.08;;;;;;;0.44;74.80;100739.78;5003551;28;63081;-69
2021/01/14 03:28:44;;;;;;;4.25;1.25;;;;;;;0.46;75.13;100735.28;5008122;28;64897;-69
2021/01/14 03:31:12;;;;;;;3.47;0.93;;;;;;;0.39;74.49;100735.72;4985621;28;63579;-69
2021/01/14 03:33:40;;;;;;;3.85;1.25;;;;;;;0.40;75.39;100746.97;5002767;28;62706;-66
2021/01/14 03:36:08;;;;;;;2.92;0.90;;;;;;;0.38;75.12;100741.91;5004343;28;62982;-66
2021/01/14 03:38:36;;;;;;;1.65;0.80;;;;;;;0.38;75.40;100747.13;4999866;28;63230;-66
2021/01/14 03:41:08;;;;;;;4.18;0.93;;;;;;;0.43;75.03;100759.00;5000563;28;63016;-69
2021/01/14 03:43:36;;;;;;;7.28;3.78;;;;;;;0.40;75.03;100758.28;5002423;28;62865;-66
2021/01/14 03:46:12;;;;;;;4.55;0.93;;;;;;;0.45;74.98;100773.63;4992695;28;63000;-66
2021/01/14 03:48:41;;;;;;;2.20;1.25;;;;;;;0.52;74.61;100774.00;5000765;28;66078;-66
2021/01/14 03:51:14;;;;;;;2.80;0.75;;;;;;;0.55;75.02;100773.78;5012567;28;62622;-66
2021/01/14 03:53:40;;;;;;;3.28;1.77;;;;;;;0.53;74.78;100783.50;4993596;28;62738;-66
2021/01/14 03:56:07;;;;;;;1.90;1.27;;;;;;;0.53;74.70;100783.50;4988308;28;63149;-66
2021/01/14 03:58:34;;;;;;;3.58;1.42;;;;;;;0.55;75.18;100799.88;4987253;28;62797;-66
2021/01/14 04:01:03;;;;;;;5.70;1.52;;;;;;;0.57;74.81;100792.78;4991934;28;62573;-67
2021/01/14 04:03:29;;;;;;;1.73;0.85;;;;;;;0.59;74.74;100796.94;5001786;28;62846;-66
2021/01/14 04:05:56;;;;;;;6.70;2.30;;;;;;;0.61;74.59;100808.13;5007442;28;62785;-66
2021/01/14 04:08:27;;;;;;;3.05;1.58;;;;;;;0.58;74.67;100803.13;5006077;28;63553;-66
2021/01/14 04:10:53;;;;;;;2.50;1.20;;;;;;;0.64;74.92;100809.69;5009292;28;63372;-67
2021/01/14 04:13:19;;;;;;;4.00;1.52;;;;;;;0.63;74.98;100815.03;5003815;28;62657;-66
2021/01/14 04:15:45;;;;;;;5.93;1.75;;;;;;;0.66;74.60;100823.47;5005379;28;62961;-66
2021/01/14 04:18:12;;;;;;;2.63;1.30;;;;;;;0.67;75.05;100834.75;4988461;28;64378;-67
2021/01/14 04:20:38;;;;;;;3.78;1.38;;;;;;;0.71;74.86;100841.44;5007549;28;62591;-66
2021/01/14 04:23:05;;;;;;;3.75;1.23;;;;;;;0.72;74.87;100838.72;4979515;28;62778;-66
2021/01/14 04:25:31;;;;;;;3.60;1.70;;;;;;;0.73;74.91;100836.94;5004555;28;62567;-69
2021/01/14 04:28:01;;;;;;;3.80;1.45;;;;;;;0.75;74.82;100845.50;5004313;28;63644;-69
2021/01/14 04:30:34;;;;;;;1.83;0.90;;;;;;;0.74;74.68;100836.81;4987207;28;63097;-67
2021/01/14 04:33:13;;;;;;;5.32;2.03;;;;;;;0.79;74.99;100860.84;5001442;28;62554;-67
2021/01/14 04:35:51;;;;;;;4.75;1.27;;;;;;;0.83;75.02;100861.47;5004950;28;62674;-69
2021/01/14 04:38:20;;;;;;;2.92;1.00;;;;;;;0.85;74.77;100864.81;4981134;28;62682;-69
2021/01/14 04:40:53;;;;;;;3.67;1.63;;;;;;;0.84;75.39;100867.50;5006096;28;64073;-67
2021/01/14 04:43:23;;;;;;;2.53;1.10;;;;;;;0.88;75.02;100866.34;4994857;28;62671;-69
2021/01/14 04:45:54;;;;;;;3.20;1.73;;;;;;;0.94;75.07;100871.97;5004852;28;62882;-66
2021/01/14 04:48:21;;;;;;;3.22;1.38;;;;;;;0.94;74.86;100868.53;5005155;28;64752;-66
2021/01/14 04:50:49;;;;;;;3.83;1.55;;;;;;;0.93;74.81;100866.84;5002868;28;62651;-70
2021/01/14 04:53:19;;;;;;;2.17;1.23;;;;;;;0.96;74.95;100877.09;5011581;28;62866;-70
2021/01/14 04:55:48;;;;;;;4.28;1.90;;;;;;;0.94;74.82;100877.19;5003339;28;62606;-69
2021/01/14 04:58:17;;;;;;;5.03;1.50;;;;;;;0.99;75.21;100884.72;5003773;28;63699;-66
2021/01/14 05:00:51;;;;;;;2.78;1.35;;;;;;;0.97;75.47;100884.81;4988702;28;63617;-70
2021/01/14 05:03:26;;;;;;;6.40;2.33;;;;;;;0.95;75.52;100891.91;5006474;28;62884;-66
2021/01/14 05:05:55;;;;;;;2.35;1.30;;;;;;;0.98;75.98;100894.31;5002890;28;63489;-66
2021/01/14 05:08:34;;;;;;;3.22;1.45;;;;;;;0.95;76.75;100893.69;4987104;28;63641;-66
2021/01/14 05:11:00;;;;;;;3.60;1.58;;;;;;;0.97;76.93;100900.47;5000460;28;63422;-66
2021/01/14 05:13:30;;;;;;;4.45;1.48;;;;;;;1.03;77.02;100914.91;4985236;28;62727;-66
2021/01/14 05:15:58;;;;;;;8.77;2.00;;;;;;;0.93;78.13;100919.09;4987554;28;63941;-70
2021/01/14 05:18:24;;;;;;;2.50;1.33;;;;;;;0.92;78.63;100923.50;5003568;28;63936;-66
2021/01/14 05:20:50;;;;;;;2.83;1.30;;;;;;;0.99;78.38;100929.13;5005521;28;63750;-66
2021/01/14 05:23:22;;;;;;;4.95;1.45;;;;;;;0.98;78.68;100943.13;4989491;28;63052;-70
2021/01/14 05:25:52;;;;;;;2.95;1.48;;;;;;;0.97;78.87;100941.44;5005856;28;61915;-67
2021/01/14 05:28:23;;;;;;;2.53;1.42;;;;;;;0.95;79.86;100943.31;4985429;28;64433;-70
2021/01/14 05:30:49;;;;;;;8.40;2.90;;;;;;;0.89;79.45;100938.53;5002237;28;62610;-66
2021/01/14 05:33:18;;;;;;;5.78;2.42;;;;;;;0.87;79.62;100951.72;4987523;28;62848;-66
2021/01/14 05:35:47;;;;;;;7.50;3.03;;;;;;;0.84;80.69;100951.06;4998844;28;63498;-70
2021/01/14 05:38:24;;;;;;;2.45;1.42;;;;;;;0.80;80.31;100959.09;4994768;28;62680;-67
2021/01/14 05:41:18;;;;;;;2.45;1.52;;;;;;;0.78;81.13;100962.78;5000488;28;62961;-70
2021/01/14 05:43:55;;;;;;;2.42;1.38;;;;;;;0.71;81.37;100961.53;5005168;28;63130;-70
2021/01/14 05:46:24;;;;;;;4.22;2.00;;;;;;;0.73;81.69;100973.53;5003941;28;62966;-70
2021/01/14 05:48:52;;;;;;;4.47;1.70;;;;;;;0.63;82.48;100975.09;5000215;28;63655;-70
2021/01/14 05:51:29;;;;;;;4.55;2.00;;;;;;;0.70;82.52;100978.13;4989494;28;62552;-66
2021/01/14 05:54:03;;;;;;;5.63;2.42;;;;;;;0.71;82.50;100993.69;4982951;28;62817;-66
2021/01/14 05:56:32;;;;;;;4.25;1.90;;;;;;;0.69;82.37;100984.31;5005956;28;62584;-66
2021/01/14 05:59:11;;;;;;;7.43;2.53;;;;;;;0.69;82.52;100992.97;4984637;28;65071;-69
2021/01/14 06:01:51;;;;;;;7.18;2.47;;;;;;;0.65;82.98;100999.31;5011330;28;62433;-69
2021/01/14 06:04:19;;;;;;;3.88;1.98;;;;;;;0.56;83.42;100994.72;4987032;28;63167;-67
2021/01/14 06:06:49;;;;;;;6.65;2.10;;;;;;;0.56;84.12;100999.94;5001839;28;63309;-66
2021/01/14 06:09:21;;;;;;;4.97;2.13;;;;;;;0.55;83.71;101009.56;4993005;28;63828;-66
2021/01/14 06:11:49;;;;;;;3.67;2.40;;;;;;;0.51;84.03;101005.50;4988276;28;63165;-67
2021/01/14 06:14:32;;;;;;;4.95;1.88;;;;;;;0.52;83.93;101016.75;4990777;28;63558;-67
2021/01/14 06:17:14;;;;;;;3.83;1.92;;;;;;;0.45;83.86;101015.47;5000312;28;63212;-69
2021/01/14 06:19:41;;;;;;;6.72;1.85;;;;;;;0.44;83.92;101021.66;5007961;28;63630;-69
2021/01/14 06:22:07;;;;;;;5.10;1.58;;;;;;;0.48;84.42;101029.16;5000389;28;62722;-69
2021/01/14 06:24:39;;;;;;;5.70;1.65;;;;;;;0.48;84.60;101033.56;5001826;28;63721;-69
2021/01/14 06:27:05;;;;;;;4.25;1.85;;;;;;;0.52;84.23;101035.03;5000347;28;63071;-69
2021/01/14 06:29:35;;;;;;;5.63;2.88;;;;;;;0.52;84.92;101035.03;4983920;28;63511;-66
2021/01/14 06:32:15;;;;;;;3.25;2.03;;;;;;;0.42;85.22;101026.13;5000938;28;62592;-66
2021/01/14 06:34:42;;;;;;;4.57;2.10;;;;;;;0.43;85.38;101033.88;4986402;28;62675;-69
2021/01/14 06:37:24;;;;;;;5.75;2.25;;;;;;;0.38;85.33;101047.22;5004202;28;62636;-66
2021/01/14 06:40:00;;;;;;;5.25;2.13;;;;;;;0.31;85.64;101045.09;4993589;28;62544;-68
2021/01/14 06:42:36;;;;;;;3.95;2.17;;;;;;;0.33;86.13;101064.09;4992964;28;62639;-73
2021/01/14 06:45:11;;;;;;;5.43;1.77;;;;;;;0.22;86.56;101056.97;5005924;28;62661;-68
2021/01/14 06:47:41;;;;;;;5.03;2.45;;;;;;;0.25;86.27;101069.81;5006843;28;62537;-72
2021/01/14 06:50:20;;;;;;;8.43;2.22;;;;;;;0.28;86.24;101085.28;5007286;28;63711;-72
2021/01/14 06:52:52;;;;;;;11.18;3.17;;;;;;;0.30;86.25;101093.00;4985887;28;62599;-68
2021/01/14 06:55:22;;;;;;;5.65;3.22;;;;;;;0.32;86.71;101091.97;5005770;28;62688;-71
2021/01/14 06:58:09;;;;;;;6.25;3.00;;;;;;;0.34;86.22;101090.09;4990803;28;63413;-71
2021/01/14 07:00:39;;;;;;;6.40;2.80;;;;;;;0.34;86.11;101087.50;5001542;28;63430;-71
2021/01/14 07:05:43;;;;;;;;;;;;;;;0.36;86.57;101103.91;4997688;28;63261;-71
2021/01/14 07:08:39;;;;;;;4.93;2.90;;;;;;;0.36;86.22;101114.34;4996455;28;63700;-68
2021/01/14 07:11:06;;;;;;;5.60;3.17;;;;;;;0.40;85.97;101110.59;4989535;28;64368;-67
2021/01/14 07:13:39;;;;;;;7.72;2.88;;;;;;;0.38;86.03;101117.69;4977356;28;62785;-68
2021/01/14 07:16:07;;;;;;;3.03;1.80;;;;;;;0.43;86.36;101111.34;4993662;28;62658;-67
2021/01/14 07:18:35;;;;;;;5.57;2.63;;;;;;;0.38;86.03;101122.91;5002403;28;62650;-67
2021/01/14 07:21:16;;;;;;;7.20;2.25;;;;;;;0.33;86.33;101132.78;4993036;28;64093;-67
2021/01/14 07:23:57;;;;;;;6.10;2.67;;;;;;;0.31;86.79;101136.44;4999568;28;62805;-67
2021/01/14 07:26:27;;;;;;;3.83;2.05;;;;;;;0.28;86.67;101150.53;5003732;28;62639;-67
2021/01/14 07:28:54;;;;;;;9.02;3.03;;;;;;;0.31;86.53;101147.69;5009916;28;62463;-71
2021/01/14 07:31:30;;;;;;;6.53;2.65;;;;;;;0.34;86.37;101157.97;4997964;28;62511;-67
2021/01/14 07:34:36;;;;;;;5.05;2.88;;;;;;;0.36;85.89;101161.31;4983014;28;62544;-67
2021/01/14 07:37:06;;;;;;;5.03;2.20;;;;;;;0.38;85.84;101169.03;5008047;28;62606;-70
2021/01/14 07:39:53;;;;;;;6.70;2.53;;;;;;;0.43;85.98;101171.38;5000278;28;62793;-71
2021/01/14 07:42:28;;;;;;;7.93;3.13;;;;;;;0.39;86.16;101173.31;4986807;28;63621;-67
2021/01/14 07:45:01;;;;;;;7.77;3.10;;;;;;;0.44;85.70;101183.47;5002207;28;62807;-67
2021/01/14 07:47:38;;;;;;;6.00;3.30;;;;;;;0.42;86.14;101180.09;5000916;28;62597;-71
2021/01/14 07:50:20;;;;;;;6.10;3.55;;;;;;;0.42;85.84;101180.94;5005052;28;62643;-67
2021/01/14 07:52:52;;;;;;;5.32;2.30;;;;;;;0.39;85.98;101181.97;5011272;28;64683;-71
2021/01/14 07:55:29;;;;;;;8.50;5.07;;;;;;;0.46;86.33;101197.25;4993534;28;62626;-68
2021/01/14 07:58:06;;;;;;;6.15;3.17;;;;;;;0.48;85.94;101195.38;4999232;28;62664;-67
2021/01/14 08:00:32;;;;;;;8.68;3.17;;;;;;;0.52;86.11;101202.09;5015967;28;62480;-69
2021/01/14 08:03:14;;;;;;;6.07;3.40;;;;;;;0.53;85.88;101203.75;5006043;28;64903;-69
2021/01/14 08:05:56;;;;;;;8.93;3.75;;;;;;;0.53;85.86;101209.84;5002197;28;62834;-68
2021/01/14 08:08:33;;;;;;;5.63;3.60;;;;;;;0.56;85.37;101207.00;5004445;28;62725;-65
2021/01/14 08:11:09;;;;;;;6.85;2.58;;;;;;;0.62;85.71;101218.84;5002641;28;62687;-69
2021/01/14 08:13:59;;;;;;;5.55;3.10;;;;;;;0.67;85.63;101216.78;5004181;28;64721;-68
2021/01/14 08:16:33;;;;;;;6.40;3.20;;;;;;;0.71;85.24;101223.47;4998369;28;62636;-69
2021/01/14 08:19:17;;;;;;;4.97;2.70;;;;;;;0.79;84.75;101218.59;5007441;28;62323;-65
2021/01/14 08:21:49;;;;;;;5.40;3.47;;;;;;;0.85;84.81;101225.22;4990877;28;61935;-69
2021/01/14 08:24:51;;;;;;;8.30;3.60;;;;;;;0.86;84.46;101218.22;5006836;28;64474;-65
2021/01/14 08:27:26;;;;;;;7.20;3.75;;;;;;;0.97;84.42;101231.41;4999803;28;62363;-69
2021/01/14 08:29:59;;;;;;;9.63;4.25;;;;;;;1.02;84.29;101243.25;4998135;28;62973;-66
2021/01/14 08:32:35;;;;;;;5.72;3.35;;;;;;;1.06;83.34;101249.09;4998900;28;63388;-66
2021/01/14 08:35:41;;;;;;;5.72;2.92;;;;;;;1.17;83.00;101246.63;5006753;28;63801;-69
2021/01/14 08:38:06;;;;;;;5.30;3.10;;;;;;;1.29;83.46;101246.75;4997849;28;62577;-69
2021/01/14 08:40:36;;;;;;;7.72;3.95;;;;;;;1.36;83.14;101246.25;5008906;28;62327;-70
2021/01/14 08:43:07;;;;;;;10.25;3.90;;;;;;;1.45;82.40;101254.44;4998054;28;62948;-66
2021/01/14 08:45:44;;;;;;;5.60;3.40;;;;;;;1.49;82.31;101250.63;5014219;28;62697;-70
2021/01/14 08:48:27;;;;;;;6.55;3.83;;;;;;;1.51;81.71;101257.47;5006128;28;62729;-66
2021/01/14 08:50:56;;;;;;;5.43;3.05;;;;;;;1.60;81.91;101258.63;5001674;28;62633;-70
2021/01/14 08:53:23;;;;;;;9.45;3.72;;;;;;;1.59;81.31;101265.66;4979352;28;62913;-69
2021/01/14 08:55:59;;;;;;;4.63;3.35;;;;;;;1.70;81.21;101264.06;4998472;28;63461;-66
2021/01/14 08:58:48;;;;;;;7.32;3.40;;;;;;;1.77;80.94;101273.19;4997289;28;62379;-67
2021/01/14 09:01:16;;;;;;;6.78;3.55;;;;;;;1.82;80.46;101273.69;4997418;28;63303;-66
2021/01/14 09:03:42;;;;;;;5.43;2.78;;;;;;;1.83;80.46;101281.44;5001141;28;62636;-68
2021/01/14 09:06:08;;;;;;;7.18;3.40;;;;;;;1.88;80.32;101273.28;4999826;28;64947;-68
2021/01/14 09:08:34;;;;;;;6.82;3.63;;;;;;;1.99;79.89;101277.78;5002138;28;62330;-69
2021/01/14 09:11:01;;;;;;;9.88;3.53;;;;;;;2.11;79.08;101283.97;4998573;28;62670;-66
2021/01/14 09:13:30;;;;;;;8.40;3.70;;;;;;;2.18;79.14;101283.41;5009071;28;63294;-70
2021/01/14 09:15:58;;;;;;;8.35;3.45;;;;;;;2.29;79.09;101293.16;4991104;28;62606;-66
2021/01/14 09:18:33;;;;;;;7.30;3.72;;;;;;;2.38;78.14;101291.66;5003137;28;62914;-70
2021/01/14 09:21:00;;;;;;;6.97;3.08;;;;;;;2.46;77.98;101291.97;4999261;28;62718;-69
2021/01/14 09:23:35;;;;;;;6.78;3.35;;;;;;;2.50;77.29;101292.59;5007803;28;62695;-69
2021/01/14 09:26:09;;;;;;;6.65;3.65;;;;;;;2.64;77.63;101300.34;5000854;28;63694;-66
2021/01/14 09:28:36;;;;;;;6.88;3.65;;;;;;;2.64;77.05;101303.78;5000424;28;62549;-70
2021/01/14 09:31:06;;;;;;;4.90;2.45;;;;;;;2.59;77.55;101316.38;5002413;28;62617;-66
2021/01/14 09:33:35;;;;;;;7.30;3.15;;;;;;;2.77;76.68;101318.63;4996728;28;62529;-69
2021/01/14 09:36:15;;;;;;;7.25;3.65;;;;;;;2.80;76.06;101313.16;5001449;28;63989;-66
2021/01/14 09:38:56;;;;;;;7.00;3.42;;;;;;;2.86;76.77;101320.59;4999755;28;62968;-67
2021/01/14 09:41:29;;;;;;;3.92;2.55;;;;;;;2.85;76.45;101324.16;4984644;28;62730;-70
2021/01/14 09:44:07;;;;;;;5.50;3.17;;;;;;;2.94;76.01;101314.81;5012965;28;63910;-67
2021/01/14 09:46:42;;;;;;;6.45;3.03;;;;;;;3.02;75.35;101333.44;4988523;28;64461;-67
2021/01/14 09:49:11;;;;;;;6.32;3.33;;;;;;;3.03;75.13;101337.72;4995264;28;62982;-67
2021/01/14 09:51:38;;;;;;;8.48;4.13;;;;;;;3.02;74.62;101333.44;4997323;28;62647;-67
2021/01/14 09:54:06;;;;;;;9.68;3.35;;;;;;;3.06;74.93;101337.53;5000177;28;62870;-66
2021/01/14 09:56:43;;;;;;;7.22;3.63;;;;;;;3.09;74.70;101345.16;4993518;28;63916;-67
2021/01/14 09:59:27;;;;;;;5.10;3.20;;;;;;;3.15;74.75;101346.50;4995340;28;63999;-67
2021/01/14 10:02:19;;;;;;;5.60;2.95;;;;;;;3.22;74.85;101356.44;4996469;28;62752;-69
2021/01/14 10:04:58;;;;;;;5.93;3.33;;;;;;;3.28;74.03;101351.69;4987863;28;62972;-67
2021/01/14 10:07:25;;;;;;;6.30;3.50;;;;;;;3.36;73.53;101357.19;4996352;28;64882;-67
2021/01/14 10:09:54;;;;;;;7.70;4.00;;;;;;;3.35;73.15;101361.63;5001955;28;64536;-67
2021/01/14 10:12:20;;;;;;;5.43;2.88;;;;;;;3.28;73.78;101354.31;4994118;28;62683;-67
2021/01/14 10:14:47;;;;;;;5.70;3.15;;;;;;;3.33;73.83;101357.44;5003237;28;62783;-67
2021/01/14 10:17:16;;;;;;;6.40;3.58;;;;;;;3.31;73.21;101362.78;4997968;28;63947;-67
2021/01/14 10:19:48;;;;;;;7.88;3.75;;;;;;;3.21;73.42;101369.63;4995878;28;63774;-67
2021/01/14 10:22:14;;;;;;;7.82;3.72;;;;;;;3.20;73.86;101371.44;4987530;28;62459;-67
2021/01/14 10:24:41;;;;;;;6.68;3.78;;;;;;;3.13;73.65;101375.44;5004270;28;62841;-67
2021/01/14 10:27:15;;;;;;;6.88;4.25;;;;;;;3.09;74.79;101365.28;4995494;28;62867;-67
2021/01/14 10:29:42;;;;;;;7.65;4.80;;;;;;;3.13;74.75;101367.59;5009688;28;62798;-67
2021/01/14 10:32:11;;;;;;;9.25;3.72;;;;;;;3.23;74.60;101372.97;4996903;28;62710;-67
2021/01/14 10:34:45;;;;;;;8.25;3.75;;;;;;;3.26;74.35;101368.38;4992393;28;62821;-67
2021/01/14 10:37:17;;;;;;;6.57;4.05;;;;;;;3.28;73.79;101364.81;4995930;28;64696;-67
2021/01/14 10:39:43;;;;;;;8.80;4.10;;;;;;;3.32;74.00;101374.13;5000373;28;62543;-67
2021/01/14 10:42:28;;;;;;;6.85;3.80;;;;;;;3.38;72.83;101371.91;4999564;28;62908;-67
2021/01/14 10:44:58;;;;;;;7.50;4.03;;;;;;;3.52;73.55;101372.66;5001582;28;62656;-67
2021/01/14 10:47:24;;;;;;;7.10;4.28;;;;;;;3.53;72.62;101367.31;4995911;28;62971;-67
2021/01/14 10:49:50;;;;;;;6.53;3.17;;;;;;;3.52;73.88;101373.50;4981468;28;62812;-67
2021/01/14 10:52:16;;;;;;;8.45;3.47;;;;;;;3.67;72.49;101376.78;4995411;28;62740;-67
2021/01/14 10:55:02;;;;;;;8.10;3.60;;;;;;;3.80;72.28;101380.16;5004006;28;62827;-67
2021/01/14 10:57:50;;;;;;;7.13;4.07;;;;;;;3.84;71.71;101389.47;4997710;28;63521;-68
2021/01/14 11:00:19;;;;;;;6.28;3.10;;;;;;;3.75;71.37;101377.06;4998990;28;62556;-67
2021/01/14 11:02:46;;;;;;;8.77;4.82;;;;;;;3.73;71.48;101383.38;5002211;28;62612;-67
2021/01/14 11:05:14;;;;;;;9.02;4.05;;;;;;;3.68;71.54;101379.31;4998216;28;62814;-67
2021/01/14 11:07:41;;;;;;;9.45;4.30;;;;;;;3.70;72.30;101381.81;5000059;28;62475;-70
2021/01/14 11:10:09;;;;;;;8.10;3.80;;;;;;;3.79;71.67;101382.91;4998618;28;62739;-69
2021/01/14 11:13:09;;;;;;;6.57;3.30;;;;;;;3.89;71.76;101391.78;4995695;28;62647;-70
2021/01/14 11:15:35;;;;;;;6.60;4.03;;;;;;;3.85;71.44;101390.34;4997789;28;63084;-69
2021/01/14 11:18:03;;;;;;;6.97;4.35;;;;;;;3.79;71.27;101390.78;4999231;28;64947;-69
2021/01/14 11:20:31;;;;;;;5.82;3.50;;;;;;;3.89;71.77;101397.03;4975351;28;63117;-67
2021/01/14 11:22:57;;;;;;;8.10;3.95;;;;;;;4.04;71.13;101389.81;5001992;28;62452;-66
2021/01/14 11:25:23;;;;;;;6.07;3.38;;;;;;;4.04;71.64;101388.00;4997536;28;63304;-66
2021/01/14 11:27:49;;;;;;;7.03;3.67;;;;;;;4.21;69.66;101385.91;4978572;28;62606;-64
2021/01/14 11:30:16;;;;;;;7.80;3.70;;;;;;;4.29;70.40;101388.75;4978765;28;62982;-65
2021/01/14 11:32:44;;;;;;;5.43;3.15;;;;;;;4.40;68.22;101383.53;4978231;28;62569;-64
2021/01/14 11:35:11;;;;;;;6.13;3.60;;;;;;;4.38;68.88;101377.56;5004779;28;63335;-65
2021/01/14 11:37:38;;;;;;;7.35;4.53;;;;;;;4.45;68.70;101380.56;4995258;28;62625;-65
2021/01/14 11:40:05;;;;;;;6.47;3.72;;;;;;;4.53;68.03;101377.31;4985751;28;62572;-65
2021/01/14 11:42:31;;;;;;;11.02;4.20;;;;;;;4.66;67.77;101370.19;4987647;28;64238;-65
2021/01/14 11:44:58;;;;;;;9.50;4.30;;;;;;;4.72;67.29;101364.44;5006733;28;62743;-65
2021/01/14 11:47:24;;;;;;;7.10;3.88;;;;;;;4.74;68.23;101362.53;5001109;28;63360;-65
2021/01/14 11:49:50;;;;;;;6.32;3.63;;;;;;;4.99;67.01;101365.84;4998246;28;62669;-65
2021/01/14 11:52:16;;;;;;;9.88;4.13;;;;;;;5.11;67.07;101365.69;5007229;28;63415;-65
2021/01/14 11:54:43;;;;;;;7.03;3.88;;;;;;;5.30;66.81;101359.78;5001545;28;62669;-65
2021/01/14 11:57:10;;;;;;;10.32;3.72;;;;;;;5.51;64.90;101366.91;5004687;28;62570;-65